createdAt,value
2019-03-28T00:01:11.008Z,42.13
2019-03-28T00:03:39.736Z,35.48
2019-03-28T00:06:08.456Z,38.42
2019-03-28T00:08:37.104Z,38.90
2019-03-28T00:11:05.900Z,39.23
2019-03-28T00:13:34.557Z,37.63
2019-03-28T00:16:03.344Z,36.55
2019-03-28T00:18:32.077Z,46.30
2019-03-28T00:21:01.123Z,36.00
2019-03-28T00:23:32.153Z,37.98
2019-03-28T00:26:00.923Z,35.58
2019-03-28T00:28:29.662Z,33.55
2019-03-28T00:30:58.443Z,41.28
2019-03-28T00:33:27.174Z,33.42
2019-03-28T00:35:55.896Z,28.70
2019-03-28T00:38:25.153Z,29.80
2019-03-28T00:40:53.812Z,33.30
2019-03-28T00:43:22.612Z,37.73
2019-03-28T00:45:51.270Z,39.88
2019-03-28T00:48:20.002Z,43.73
2019-03-28T00:50:48.713Z,39.70
2019-03-28T00:53:17.428Z,33.75
2019-03-28T00:55:46.083Z,25.88
2019-03-28T00:58:14.799Z,30.00
2019-03-28T01:00:43.600Z,20.57
2019-03-28T01:03:12.240Z,32.85
2019-03-28T01:05:41.117Z,35.10
2019-03-28T01:08:09.844Z,42.27
2019-03-28T01:10:38.581Z,54.42
2019-03-28T01:13:07.302Z,51.83
2019-03-28T01:15:36.031Z,40.15
2019-03-28T01:18:04.761Z,28.57
2019-03-28T01:20:33.493Z,36.33
2019-03-28T01:23:02.211Z,26.45
2019-03-28T01:25:30.860Z,28.62
2019-03-28T01:27:59.528Z,38.88
2019-03-28T01:30:28.201Z,28.45
2019-03-28T01:32:56.898Z,31.80
2019-03-28T01:35:25.631Z,40.92
2019-03-28T01:37:54.474Z,30.85
2019-03-28T01:40:23.182Z,52.78
2019-03-28T01:42:51.900Z,61.23
2019-03-28T01:45:20.628Z,68.60
2019-03-28T01:47:49.303Z,60.73
2019-03-28T01:50:17.922Z,47.03
2019-03-28T01:52:47.291Z,61.13
2019-03-28T01:55:16.105Z,64.42
2019-03-28T01:57:44.756Z,50.52
2019-03-28T02:00:13.747Z,52.48
2019-03-28T02:02:42.582Z,53.00
2019-03-28T02:05:11.364Z,55.83
2019-03-28T02:07:40.016Z,55.45
2019-03-28T02:10:08.937Z,51.55
2019-03-28T02:12:37.672Z,61.63
2019-03-28T02:15:08.095Z,53.45
2019-03-28T02:17:37.243Z,50.23
2019-03-28T02:20:07.040Z,51.23
2019-03-28T02:22:35.778Z,45.73
2019-03-28T02:25:06.190Z,79.12
2019-03-28T02:27:35.022Z,83.70
2019-03-28T02:30:05.415Z,78.22
2019-03-28T02:32:34.262Z,67.90
2019-03-28T02:35:02.996Z,66.80
2019-03-28T02:37:31.696Z,50.12
2019-03-28T02:40:00.505Z,58.83
2019-03-28T02:42:29.132Z,66.47
2019-03-28T02:44:57.865Z,72.12
2019-03-28T02:47:26.608Z,65.40
2019-03-28T02:49:55.301Z,57.67
2019-03-28T02:52:23.997Z,49.50
2019-03-28T02:54:52.654Z,44.48
2019-03-28T02:57:39.679Z,54.55
2019-03-28T02:59:54.729Z,57.20
2019-03-28T03:02:23.681Z,56.75
2019-03-28T03:04:52.348Z,59.48
2019-03-28T03:07:21.040Z,57.95
2019-03-28T03:09:49.693Z,63.50
2019-03-28T03:12:18.363Z,59.38
2019-03-28T03:14:47.076Z,50.70
2019-03-28T03:17:15.980Z,55.40
2019-03-28T03:19:44.824Z,51.55
2019-03-28T03:22:13.546Z,52.80
2019-03-28T03:24:42.268Z,58.65
2019-03-28T03:27:10.996Z,46.02
2019-03-28T03:29:39.718Z,50.70
2019-03-28T03:32:08.430Z,48.98
2019-03-28T03:34:37.154Z,50.58
2019-03-28T03:37:05.891Z,53.28
2019-03-28T03:39:34.536Z,48.90
2019-03-28T03:42:03.362Z,54.75
2019-03-28T03:44:32.070Z,42.08
2019-03-28T03:47:00.784Z,41.70
2019-03-28T03:49:30.624Z,40.45
2019-03-28T03:51:59.323Z,41.23
2019-03-28T03:54:27.968Z,45.95
2019-03-28T03:56:56.714Z,46.25
2019-03-28T03:59:25.356Z,44.45
2019-03-28T04:01:54.005Z,51.85
2019-03-28T04:04:22.788Z,42.23
2019-03-28T04:06:51.553Z,45.90
2019-03-28T04:09:20.323Z,46.42
2019-03-28T04:11:49.022Z,53.85
2019-03-28T04:14:17.718Z,50.67
2019-03-28T04:16:46.410Z,48.13
2019-03-28T04:19:15.108Z,63.68
2019-03-28T04:21:43.981Z,47.65
2019-03-28T04:24:12.735Z,43.85
2019-03-28T04:26:41.441Z,55.45
2019-03-28T04:29:10.220Z,40.70
2019-03-28T04:31:38.974Z,43.17
2019-03-28T04:34:09.384Z,48.02
2019-03-28T04:36:38.086Z,71.42
2019-03-28T04:39:06.949Z,51.33
2019-03-28T04:41:35.663Z,51.65
2019-03-28T04:44:04.420Z,50.25
2019-03-28T04:46:33.135Z,36.40
2019-03-28T04:49:01.825Z,63.95
2019-03-28T04:51:30.603Z,42.30
2019-03-28T04:53:59.374Z,63.35
2019-03-28T04:56:28.163Z,57.10
2019-03-28T04:58:56.859Z,41.88
2019-03-28T05:01:25.700Z,44.27
2019-03-28T05:03:54.322Z,34.92
2019-03-28T05:06:23.049Z,61.33
2019-03-28T05:08:51.749Z,36.35
2019-03-28T05:11:20.444Z,36.30
2019-03-28T05:13:49.142Z,21.25
2019-03-28T05:16:17.828Z,34.58
2019-03-28T05:18:46.478Z,24.75
2019-03-28T05:21:15.137Z,18.60
2019-03-28T05:23:43.889Z,29.30
2019-03-28T05:26:12.584Z,24.77
2019-03-28T05:28:41.297Z,36.83
2019-03-28T05:31:09.996Z,32.53
2019-03-28T05:33:38.717Z,28.35
2019-03-28T05:36:07.381Z,62.25
2019-03-28T05:38:36.084Z,35.70
2019-03-28T05:41:04.850Z,30.23
2019-03-28T05:43:33.543Z,43.08
2019-03-28T05:46:02.236Z,48.65
2019-03-28T05:48:30.932Z,35.83
2019-03-28T05:50:59.618Z,33.40
2019-03-28T05:53:28.246Z,22.70
2019-03-28T05:55:56.836Z,30.55
2019-03-28T05:58:25.480Z,35.00
2019-03-28T06:00:54.137Z,43.73
2019-03-28T06:03:22.784Z,28.47
2019-03-28T06:05:52.235Z,25.25
2019-03-28T06:08:21.015Z,28.45
2019-03-28T06:10:49.682Z,21.95
2019-03-28T06:13:18.399Z,24.00
2019-03-28T06:15:47.276Z,21.73
2019-03-28T06:18:16.132Z,17.50
2019-03-28T06:20:44.991Z,18.42
2019-03-28T06:23:13.621Z,20.52
2019-03-28T06:25:42.547Z,16.62
2019-03-28T06:28:11.277Z,19.05
2019-03-28T06:30:39.988Z,34.85
2019-03-28T06:33:08.767Z,22.05
2019-03-28T06:35:37.671Z,21.35
2019-03-28T06:38:06.452Z,19.40
2019-03-28T06:40:35.149Z,30.00
2019-03-28T06:43:03.798Z,22.62
2019-03-28T06:45:32.453Z,18.62
2019-03-28T06:48:01.172Z,20.55
2019-03-28T06:50:29.822Z,27.02
2019-03-28T06:52:58.486Z,23.27
2019-03-28T06:55:27.125Z,30.00
2019-03-28T06:57:55.841Z,21.37
2019-03-28T07:00:24.496Z,44.33
2019-03-28T07:02:53.212Z,22.75
2019-03-28T07:05:22.321Z,37.10
2019-03-28T07:07:51.161Z,17.50
2019-03-28T07:10:19.811Z,16.00
2019-03-28T07:12:48.428Z,21.97
2019-03-28T07:15:17.102Z,22.30
2019-03-28T07:17:45.754Z,17.37
2019-03-28T07:20:14.869Z,19.40
2019-03-28T07:22:45.897Z,18.70
2019-03-28T07:25:13.952Z,17.05
2019-03-28T07:27:43.494Z,21.87
2019-03-28T07:30:13.672Z,23.35
2019-03-28T07:32:43.543Z,16.63
2019-03-28T07:35:12.620Z,18.73
2019-03-28T07:37:41.279Z,19.65
2019-03-28T07:40:10.092Z,21.15
2019-03-28T07:42:38.816Z,19.20
2019-03-28T07:45:09.136Z,21.57
2019-03-28T07:47:37.864Z,18.75
2019-03-28T07:50:08.758Z,14.70
2019-03-28T07:55:08.528Z,21.25
2019-03-28T07:57:37.248Z,18.40
2019-03-28T08:00:09.252Z,11.88
2019-03-28T08:02:37.963Z,19.20
2019-03-28T08:05:09.253Z,17.32
2019-03-28T08:07:44.965Z,13.32
2019-03-28T08:10:09.030Z,27.05
2019-03-28T08:12:37.739Z,17.40
2019-03-28T08:15:12.021Z,21.33
2019-03-28T08:17:40.676Z,15.20
2019-03-28T08:20:11.192Z,12.00
2019-03-28T08:22:39.904Z,10.98
2019-03-28T08:25:11.696Z,9.68
2019-03-28T08:27:39.275Z,13.83
2019-03-28T08:30:18.179Z,21.87
2019-03-28T08:32:40.358Z,18.37
2019-03-28T08:35:09.106Z,12.05
2019-03-28T08:37:37.795Z,24.35
2019-03-28T08:40:08.184Z,17.45
2019-03-28T08:42:36.892Z,11.50
2019-03-28T08:45:07.340Z,13.05
2019-03-28T08:47:36.029Z,15.38
2019-03-28T08:50:06.648Z,11.90
2019-03-28T08:52:35.360Z,15.90
2019-03-28T08:55:09.662Z,10.08
2019-03-28T08:57:36.707Z,18.67
2019-03-28T09:00:08.664Z,11.55
2019-03-28T09:02:37.376Z,15.30
2019-03-28T09:05:06.399Z,23.75
2019-03-28T09:07:35.051Z,13.25
2019-03-28T09:10:06.461Z,11.43
2019-03-28T09:12:35.621Z,11.85
2019-03-28T09:15:06.527Z,12.68
2019-03-28T09:17:35.176Z,12.63
2019-03-28T09:20:05.595Z,16.25
2019-03-28T09:22:34.252Z,10.93
2019-03-28T09:25:03.031Z,11.75
2019-03-28T09:27:31.756Z,25.23
2019-03-28T09:30:00.472Z,12.78
2019-03-28T09:32:30.096Z,10.18
2019-03-28T09:34:59.210Z,8.05
2019-03-28T09:37:27.854Z,15.28
2019-03-28T09:39:56.499Z,14.05
2019-03-28T09:42:25.214Z,10.50
2019-03-28T09:44:53.931Z,10.65
2019-03-28T09:47:22.575Z,20.15
2019-03-28T09:49:51.228Z,9.03
2019-03-28T09:52:19.942Z,9.43
2019-03-28T09:54:48.584Z,9.08
2019-03-28T09:57:17.265Z,6.87
2019-03-28T09:59:45.871Z,7.03
2019-03-28T10:02:14.587Z,7.95
2019-03-28T10:04:43.227Z,7.95
2019-03-28T10:07:11.940Z,8.85
2019-03-28T10:09:40.734Z,10.13
2019-03-28T10:12:09.516Z,11.00
2019-03-28T10:14:38.159Z,7.87
2019-03-28T10:17:06.881Z,10.45
2019-03-28T10:19:35.528Z,14.83
2019-03-28T10:22:06.772Z,9.43
2019-03-28T10:24:36.449Z,11.08
2019-03-28T10:27:05.161Z,9.38
2019-03-28T10:29:33.807Z,15.75
2019-03-28T10:32:02.519Z,12.95
2019-03-28T10:34:32.988Z,9.95
2019-03-28T10:37:01.632Z,10.30
2019-03-28T10:39:31.863Z,13.43
2019-03-28T10:42:00.912Z,9.78
2019-03-28T10:44:29.551Z,7.40
2019-03-28T10:46:58.192Z,9.28
2019-03-28T10:49:26.904Z,11.65
2019-03-28T10:51:55.552Z,11.95
2019-03-28T10:54:25.743Z,9.58
2019-03-28T10:56:57.544Z,21.60
2019-03-28T10:59:25.501Z,11.83
2019-03-28T11:01:54.351Z,8.20
2019-03-28T11:04:23.031Z,15.50
2019-03-28T11:06:51.751Z,9.30
2019-03-28T11:09:20.346Z,14.05
2019-03-28T11:11:48.960Z,11.65
2019-03-28T11:14:17.603Z,13.25
2019-03-28T11:16:48.201Z,8.58
2019-03-28T11:19:17.526Z,10.20
2019-03-28T11:21:46.320Z,10.13
2019-03-28T11:24:15.036Z,9.00
2019-03-28T11:26:43.681Z,7.15
2019-03-28T11:29:12.399Z,19.87
2019-03-28T11:31:47.723Z,7.92
2019-03-28T11:34:11.480Z,11.70
2019-03-28T11:36:40.123Z,8.20
2019-03-28T11:39:08.835Z,11.30
2019-03-28T11:41:37.651Z,9.68
2019-03-28T11:44:06.365Z,7.40
2019-03-28T11:46:35.021Z,16.20
2019-03-28T11:49:03.744Z,10.72
2019-03-28T11:51:32.469Z,11.95
2019-03-28T11:54:01.988Z,10.20
2019-03-28T11:56:30.709Z,11.75
2019-03-28T11:58:59.364Z,34.20
2019-03-28T12:01:28.226Z,16.00
2019-03-28T12:03:56.828Z,8.90
2019-03-28T12:06:26.923Z,8.73
2019-03-28T12:08:55.981Z,13.50
2019-03-28T12:11:24.965Z,8.75
2019-03-28T12:13:53.683Z,10.05
2019-03-28T12:16:22.400Z,11.20
2019-03-28T12:18:51.138Z,7.00
2019-03-28T12:21:19.848Z,11.78
2019-03-28T12:23:48.568Z,12.45
2019-03-28T12:26:17.291Z,14.03
2019-03-28T12:28:46.021Z,9.68
2019-03-28T12:31:14.737Z,7.40
2019-03-28T12:33:43.456Z,6.42
2019-03-28T12:36:12.169Z,20.23
2019-03-28T12:38:40.892Z,8.85
2019-03-28T12:41:09.617Z,9.25
2019-03-28T12:43:38.332Z,9.20
2019-03-28T12:46:07.053Z,11.80
2019-03-28T12:48:35.769Z,4.70
2019-03-28T12:51:04.491Z,15.45
2019-03-28T12:53:33.209Z,9.28
2019-03-28T12:56:01.927Z,6.60
2019-03-28T12:58:30.647Z,8.70
2019-03-28T13:00:59.288Z,4.03
2019-03-28T13:03:31.229Z,9.68
2019-03-28T13:05:58.277Z,8.88
2019-03-28T13:08:26.884Z,7.40
2019-03-28T13:10:55.591Z,6.45
2019-03-28T13:13:24.317Z,11.75
2019-03-28T13:15:53.040Z,10.58
2019-03-28T13:18:21.691Z,6.53
2019-03-28T13:20:50.406Z,8.58
2019-03-28T13:23:19.157Z,5.40
2019-03-28T13:25:48.018Z,9.28
2019-03-28T13:28:16.738Z,7.15
2019-03-28T13:30:45.430Z,4.10
2019-03-28T13:33:14.115Z,14.30
2019-03-28T13:35:42.767Z,4.42
2019-03-28T13:38:11.423Z,9.23
2019-03-28T13:40:40.153Z,5.28
2019-03-28T13:43:08.878Z,5.20
2019-03-28T13:45:37.614Z,8.15
2019-03-28T13:48:06.270Z,2.95
2019-03-28T13:50:34.945Z,6.58
2019-03-28T13:53:03.601Z,5.30
2019-03-28T13:55:32.287Z,5.00
2019-03-28T13:58:00.982Z,7.72
2019-03-28T14:00:31.115Z,8.83
2019-03-28T14:02:59.788Z,8.17
2019-03-28T14:05:28.524Z,10.43
2019-03-28T14:07:57.191Z,9.30
2019-03-28T14:10:25.926Z,17.35
2019-03-28T14:12:54.585Z,5.67
2019-03-28T14:15:23.323Z,12.47
2019-03-28T14:17:52.058Z,13.10
2019-03-28T14:20:22.332Z,9.85
2019-03-28T14:22:51.228Z,23.35
2019-03-28T14:25:19.969Z,13.83
2019-03-28T14:27:48.690Z,6.58
2019-03-28T14:30:18.237Z,15.98
2019-03-28T14:32:53.223Z,8.63
2019-03-28T14:35:17.346Z,10.43
2019-03-28T14:37:46.071Z,10.30
2019-03-28T14:40:14.975Z,8.83
2019-03-28T14:42:43.703Z,7.65
2019-03-28T14:45:12.538Z,6.62
2019-03-28T14:47:41.272Z,8.85
2019-03-28T14:50:10.568Z,6.53
2019-03-28T14:52:39.340Z,11.73
2019-03-28T14:55:08.080Z,4.80
2019-03-28T14:57:36.907Z,6.67
2019-03-28T15:00:08.647Z,10.58
2019-03-28T15:02:37.309Z,14.68
2019-03-28T15:05:06.537Z,9.20
2019-03-28T15:07:35.196Z,8.88
2019-03-28T15:10:05.789Z,17.87
2019-03-28T15:12:34.528Z,10.60
2019-03-28T15:15:03.265Z,10.23
2019-03-28T15:17:31.989Z,11.63
2019-03-28T15:20:00.723Z,20.77
2019-03-28T15:22:29.412Z,23.38
2019-03-28T15:24:58.107Z,4.12
2019-03-28T15:27:26.761Z,11.08
2019-03-28T15:29:55.503Z,9.20
2019-03-28T15:32:24.226Z,5.85
2019-03-28T15:34:52.969Z,11.45
2019-03-28T15:37:21.629Z,18.30
2019-03-28T15:39:50.295Z,7.37
2019-03-28T15:42:19.026Z,16.20
2019-03-28T15:44:47.758Z,20.82
2019-03-28T15:47:17.607Z,13.03
2019-03-28T15:49:46.315Z,7.28
2019-03-28T15:52:15.031Z,20.65
2019-03-28T15:54:43.757Z,11.55
2019-03-28T15:57:12.498Z,18.95
2019-03-28T15:59:41.164Z,14.45
2019-03-28T16:02:09.907Z,9.90
2019-03-28T16:04:38.631Z,9.23
2019-03-28T16:07:07.813Z,10.58
2019-03-28T16:09:36.702Z,10.43
2019-03-28T16:12:05.437Z,6.37
2019-03-28T16:14:34.171Z,7.78
2019-03-28T16:17:02.907Z,9.55
2019-03-28T16:19:31.852Z,13.90
2019-03-28T16:22:03.951Z,21.33
2019-03-28T16:24:30.899Z,20.05
2019-03-28T16:26:59.560Z,10.85
2019-03-28T16:29:28.296Z,5.90
2019-03-28T16:31:57.023Z,12.68
2019-03-28T16:34:25.759Z,12.82
2019-03-28T16:36:54.420Z,11.05
2019-03-28T16:39:23.078Z,14.05
2019-03-28T16:41:51.746Z,19.87
2019-03-28T16:44:20.550Z,16.17
2019-03-28T16:46:49.279Z,14.28
2019-03-28T16:49:17.939Z,14.03
2019-03-28T16:51:46.683Z,19.23
2019-03-28T16:54:15.412Z,23.57
2019-03-28T16:56:44.152Z,21.80
2019-03-28T16:59:12.814Z,26.52
2019-03-28T17:01:41.523Z,21.40
2019-03-28T17:04:20.180Z,17.27
2019-03-28T17:06:40.690Z,15.80
2019-03-28T17:09:09.669Z,13.48
2019-03-28T17:11:38.446Z,26.48
2019-03-28T17:14:07.139Z,20.95
2019-03-28T17:16:36.174Z,18.37
2019-03-28T17:19:04.909Z,18.17
2019-03-28T17:21:33.640Z,12.20
2019-03-28T17:24:02.337Z,25.75
2019-03-28T17:26:31.030Z,28.05
2019-03-28T17:28:59.781Z,22.30
2019-03-28T17:31:28.450Z,22.55
2019-03-28T17:33:57.763Z,14.15
2019-03-28T17:36:26.969Z,13.88
2019-03-28T17:38:55.875Z,25.95
2019-03-28T17:41:24.602Z,27.65
2019-03-28T17:43:53.232Z,27.80
2019-03-28T17:46:21.927Z,25.72
2019-03-28T17:48:50.666Z,40.15
2019-03-28T17:51:19.407Z,28.80
2019-03-28T17:53:48.136Z,32.25
2019-03-28T17:56:16.882Z,40.15
2019-03-28T17:58:45.609Z,32.30
2019-03-28T18:01:14.349Z,33.55
2019-03-28T18:03:43.078Z,27.42
2019-03-28T18:06:11.819Z,30.27
2019-03-28T18:08:40.546Z,55.20
2019-03-28T18:11:09.286Z,34.00
2019-03-28T18:13:38.023Z,48.05
2019-03-28T18:16:07.620Z,36.48
2019-03-28T18:18:36.315Z,37.80
2019-03-28T18:21:05.049Z,34.25
2019-03-28T18:23:33.710Z,26.90
2019-03-28T18:26:02.444Z,32.38
2019-03-28T18:28:31.646Z,37.90
2019-03-28T18:31:00.442Z,52.33
2019-03-28T18:33:29.102Z,51.33
2019-03-28T18:35:57.832Z,59.13
2019-03-28T18:38:26.576Z,37.95
2019-03-28T18:40:55.263Z,33.00
2019-03-28T18:43:24.004Z,30.35
2019-03-28T18:45:52.732Z,19.73
2019-03-28T18:48:28.179Z,21.30
2019-03-28T18:50:51.886Z,30.30
2019-03-28T18:53:20.618Z,17.73
2019-03-28T18:55:49.363Z,20.37
2019-03-28T18:58:18.087Z,45.65
2019-03-28T19:00:48.329Z,33.00
2019-03-28T19:03:17.150Z,14.28
2019-03-28T19:05:45.893Z,27.82
2019-03-28T19:08:14.625Z,33.33
2019-03-28T19:10:43.353Z,28.32
2019-03-28T19:13:12.089Z,28.65
2019-03-28T19:15:40.818Z,18.35
2019-03-28T19:18:09.515Z,14.90
2019-03-28T19:20:38.243Z,17.67
2019-03-28T19:23:07.454Z,18.77
2019-03-28T19:25:36.253Z,31.00
2019-03-28T19:28:07.453Z,26.68
2019-03-28T19:30:35.747Z,17.45
2019-03-28T19:33:06.757Z,14.10
2019-03-28T19:35:35.971Z,14.68
2019-03-28T19:38:04.815Z,30.48
2019-03-28T19:40:33.651Z,48.58
2019-03-28T19:43:02.386Z,36.90
2019-03-28T19:45:35.872Z,31.95
2019-03-28T19:48:04.249Z,19.85
2019-03-28T19:50:32.958Z,24.27
2019-03-28T19:53:01.794Z,17.27
2019-03-28T19:55:30.531Z,25.02
2019-03-28T19:57:59.264Z,17.12
2019-03-28T20:00:28.258Z,23.70
2019-03-28T20:03:00.082Z,18.33
2019-03-28T20:05:27.369Z,13.03
2019-03-28T20:07:56.046Z,18.05
2019-03-28T20:10:24.782Z,15.65
2019-03-28T20:12:53.513Z,10.63
2019-03-28T20:15:22.252Z,10.80
2019-03-28T20:17:50.961Z,19.30
2019-03-28T20:20:20.931Z,12.65
2019-03-28T20:22:49.722Z,12.43
2019-03-28T20:25:19.587Z,10.90
2019-03-28T20:27:48.311Z,10.45
2019-03-28T20:30:17.246Z,13.88
2019-03-28T20:32:47.596Z,21.15
2019-03-28T20:35:16.419Z,13.25
2019-03-28T20:37:45.150Z,17.80
2019-03-28T20:40:15.087Z,16.62
2019-03-28T20:42:43.817Z,17.48
2019-03-28T20:45:12.951Z,10.35
2019-03-28T20:47:41.683Z,12.07
2019-03-28T20:50:11.118Z,9.60
2019-03-28T20:52:39.850Z,14.60
2019-03-28T20:55:08.782Z,13.00
2019-03-28T20:57:40.284Z,14.05
2019-03-28T21:00:09.041Z,7.25
2019-03-28T21:02:37.805Z,7.58
2019-03-28T21:05:08.044Z,27.82
2019-03-28T21:07:36.772Z,10.03
2019-03-28T21:10:06.299Z,6.05
2019-03-28T21:12:34.967Z,9.98
2019-03-28T21:15:04.284Z,5.95
2019-03-28T21:17:33.937Z,8.98
2019-03-28T21:20:02.702Z,8.88
2019-03-28T21:22:31.422Z,9.50
2019-03-28T21:25:00.304Z,6.03
2019-03-28T21:27:29.081Z,5.65
2019-03-28T21:29:57.828Z,7.28
2019-03-28T21:32:26.468Z,6.20
2019-03-28T21:34:56.596Z,5.40
2019-03-28T21:37:25.452Z,5.17
2019-03-28T21:39:54.178Z,7.72
2019-03-28T21:42:22.914Z,17.20
2019-03-28T21:44:51.631Z,6.75
2019-03-28T21:47:20.338Z,8.75
2019-03-28T21:49:49.013Z,7.72
2019-03-28T21:52:17.746Z,3.83
2019-03-28T21:54:46.470Z,6.30
2019-03-28T21:57:15.223Z,6.47
2019-03-28T21:59:43.931Z,10.80
2019-03-28T22:02:12.657Z,6.30
2019-03-28T22:04:41.404Z,102.00
2019-03-28T22:07:10.124Z,31.35
2019-03-28T22:09:39.875Z,10.30
2019-03-28T22:12:08.686Z,9.73
2019-03-28T22:14:37.377Z,7.22
2019-03-28T22:17:05.990Z,7.20
2019-03-28T22:19:34.722Z,5.53
2019-03-28T22:22:03.443Z,8.10
2019-03-28T22:24:32.179Z,4.92
2019-03-28T22:27:00.901Z,5.33
2019-03-28T22:29:29.625Z,7.12
2019-03-28T22:31:58.292Z,4.78
2019-03-28T22:34:26.939Z,9.43
2019-03-28T22:36:57.594Z,7.17
2019-03-28T22:39:26.037Z,3.30
2019-03-28T22:41:54.769Z,4.87
2019-03-28T22:44:24.206Z,5.80
2019-03-28T22:46:53.493Z,3.33
2019-03-28T22:49:22.159Z,5.92
2019-03-28T22:51:50.811Z,6.33
2019-03-28T22:54:19.538Z,7.28
2019-03-28T22:56:48.264Z,7.90
2019-03-28T22:59:16.991Z,9.45
2019-03-28T23:01:45.729Z,30.52
2019-03-28T23:04:14.469Z,18.60
2019-03-28T23:06:43.127Z,17.67
2019-03-28T23:09:11.811Z,14.07
2019-03-28T23:11:40.787Z,12.63
2019-03-28T23:14:10.847Z,17.15
2019-03-28T23:20:06.683Z,11.60
2019-03-28T23:22:35.281Z,5.37
2019-03-28T23:25:04.722Z,6.15
2019-03-28T23:27:33.374Z,5.67
2019-03-28T23:30:02.889Z,9.43
2019-03-28T23:32:31.740Z,6.33
2019-03-28T23:35:00.440Z,9.90
2019-03-28T23:37:29.114Z,7.15
2019-03-28T23:39:57.837Z,8.83
2019-03-28T23:42:26.495Z,6.30
2019-03-28T23:44:55.217Z,7.80
2019-03-28T23:47:23.953Z,10.88
2019-03-28T23:49:52.674Z,7.35
2019-03-28T23:52:21.367Z,9.43
2019-03-28T23:54:49.993Z,7.08
2019-03-28T23:57:18.722Z,10.50
2019-03-28T23:59:47.421Z,6.10
